West Memphis, Arkansas
Current Conditions -  °F | °C
As of 6:08 PM on Sunday 23 Nov 2014 (Local Time) from KAWM Reporting Station
Overcast Overcast  
Wind Chill: 59°   Ceiling: 800
Heat Index: 59°   Visibility: 10mi
Dew Point: 59°   Wind: 7mph
Humidity: 100%   Direction: 210°SSW
Pressure: 29.41"   Gusts: 20mph
Location:  35.15°N, 90.19°W
Report Text: KAWM 240008Z AUTO 21006G17KT 10SM BKN008 OVC012 15/15 A2941 RMK AO2 T01500150
Loading
Personal Weather Stations






























Interactive Weather Map New forecast layout! Learn more

10-Day Weather Forecast

Advertisements
Track Severe Weather on mobile